Terminal Aerodrome Forecast
Issued by NWS

Current Version | Previous Version | Text Only | Print | Product List | Glossary On
Versions: 1 2 3 4 5 6 7 8 9 10 11 12 13 14 15 16 17 18
000
FTUS45 KVEF 121700
TAFVGT
TAF
KVGT 121720Z 1218/1318 VRB05KT P6SM SCT250
     FM122000 14007KT P6SM FEW250
     FM130400 32005KT P6SM FEW250
     FM131700 VRB05KT P6SM FEW120 SCT250=

USA.gov is the U.S. government's official web portal to all federal, state and local government web resources and services.